sensor_id;sensor_type;location;lat;lon;timestamp;temperature;humidity
12111;DHT22;6119;52.372;8.990;2023-08-31T00:00:35;14.20;99.90
12111;DHT22;6119;52.372;8.990;2023-08-31T00:03:23;14.20;99.90
12111;DHT22;6119;52.372;8.990;2023-08-31T00:06:10;14.20;99.90
12111;DHT22;6119;52.372;8.990;2023-08-31T00:08:58;14.10;99.90
12111;DHT22;6119;52.372;8.990;2023-08-31T00:11:45;14.20;99.90
12111;DHT22;6119;52.372;8.990;2023-08-31T00:14:32;14.30;99.90
12111;DHT22;6119;52.372;8.990;2023-08-31T00:17:19;14.30;99.90
12111;DHT22;6119;52.372;8.990;2023-08-31T00:20:07;14.10;99.90
12111;DHT22;6119;52.372;8.990;2023-08-31T00:22:57;14.20;99.90
12111;DHT22;6119;52.372;8.990;2023-08-31T00:25:46;14.20;99.90
12111;DHT22;6119;52.372;8.990;2023-08-31T00:28:33;14.10;99.90
12111;DHT22;6119;52.372;8.990;2023-08-31T00:31:19;14.10;99.90
12111;DHT22;6119;52.372;8.990;2023-08-31T00:34:07;14.10;99.90
12111;DHT22;6119;52.372;8.990;2023-08-31T00:37:00;14.10;99.90
12111;DHT22;6119;52.372;8.990;2023-08-31T00:39:46;14.20;99.90
12111;DHT22;6119;52.372;8.990;2023-08-31T00:42:38;14.10;99.90
12111;DHT22;6119;52.372;8.990;2023-08-31T00:45:25;14.10;99.90
12111;DHT22;6119;52.372;8.990;2023-08-31T00:48:15;14.10;99.90
12111;DHT22;6119;52.372;8.990;2023-08-31T00:51:02;14.00;99.90
12111;DHT22;6119;52.372;8.990;2023-08-31T00:53:50;14.00;99.90
12111;DHT22;6119;52.372;8.990;2023-08-31T00:56:38;14.00;99.90
12111;DHT22;6119;52.372;8.990;2023-08-31T00:59:26;14.00;99.90
12111;DHT22;6119;52.372;8.990;2023-08-31T01:02:18;13.90;99.90
12111;DHT22;6119;52.372;8.990;2023-08-31T01:05:11;13.90;99.90
12111;DHT22;6119;52.372;8.990;2023-08-31T01:08:12;13.90;99.90
12111;DHT22;6119;52.372;8.990;2023-08-31T01:11:07;13.90;99.90
12111;DHT22;6119;52.372;8.990;2023-08-31T01:14:01;13.90;99.90
12111;DHT22;6119;52.372;8.990;2023-08-31T01:16:53;13.80;99.90
12111;DHT22;6119;52.372;8.990;2023-08-31T01:19:45;13.80;99.90
12111;DHT22;6119;52.372;8.990;2023-08-31T01:22:38;13.90;99.90
12111;DHT22;6119;52.372;8.990;2023-08-31T01:25:28;13.80;99.90
12111;DHT22;6119;52.372;8.990;2023-08-31T01:28:16;13.70;99.90
12111;DHT22;6119;52.372;8.990;2023-08-31T01:31:04;13.70;99.90
12111;DHT22;6119;52.372;8.990;2023-08-31T01:33:51;13.70;99.90
12111;DHT22;6119;52.372;8.990;2023-08-31T01:36:41;13.70;99.90
12111;DHT22;6119;52.372;8.990;2023-08-31T01:39:33;13.60;99.90
12111;DHT22;6119;52.372;8.990;2023-08-31T01:42:26;13.60;99.90
12111;DHT22;6119;52.372;8.990;2023-08-31T01:45:17;13.60;99.90
12111;DHT22;6119;52.372;8.990;2023-08-31T01:48:06;13.60;99.90
12111;DHT22;6119;52.372;8.990;2023-08-31T01:50:53;13.70;99.90
12111;DHT22;6119;52.372;8.990;2023-08-31T01:53:40;13.70;99.90
12111;DHT22;6119;52.372;8.990;2023-08-31T01:56:26;13.60;99.90
12111;DHT22;6119;52.372;8.990;2023-08-31T01:59:14;13.60;99.90
12111;DHT22;6119;52.372;8.990;2023-08-31T02:02:01;13.70;99.90
12111;DHT22;6119;52.372;8.990;2023-08-31T02:04:49;13.00;99.90
12111;DHT22;6119;52.372;8.990;2023-08-31T02:07:37;13.60;99.90
12111;DHT22;6119;52.372;8.990;2023-08-31T02:10:25;13.60;99.90
12111;DHT22;6119;52.372;8.990;2023-08-31T02:13:14;13.40;99.90
12111;DHT22;6119;52.372;8.990;2023-08-31T02:16:02;13.50;99.90
12111;DHT22;6119;52.372;8.990;2023-08-31T02:18:49;13.50;99.90
12111;DHT22;6119;52.372;8.990;2023-08-31T02:21:35;13.50;99.90
12111;DHT22;6119;52.372;8.990;2023-08-31T02:24:22;13.50;99.90
12111;DHT22;6119;52.372;8.990;2023-08-31T02:27:08;13.50;99.90
12111;DHT22;6119;52.372;8.990;2023-08-31T02:29:55;13.50;99.90
12111;DHT22;6119;52.372;8.990;2023-08-31T02:32:43;13.60;99.90
12111;DHT22;6119;52.372;8.990;2023-08-31T02:35:30;13.50;99.90
12111;DHT22;6119;52.372;8.990;2023-08-31T02:38:16;13.50;99.90
12111;DHT22;6119;52.372;8.990;2023-08-31T02:41:03;13.60;99.90
12111;DHT22;6119;52.372;8.990;2023-08-31T02:43:50;13.60;99.90
12111;DHT22;6119;52.372;8.990;2023-08-31T02:46:38;13.60;99.90
12111;DHT22;6119;52.372;8.990;2023-08-31T02:49:26;13.50;99.90
12111;DHT22;6119;52.372;8.990;2023-08-31T02:52:13;13.60;99.90
12111;DHT22;6119;52.372;8.990;2023-08-31T02:55:00;13.60;99.90
12111;DHT22;6119;52.372;8.990;2023-08-31T02:57:47;13.70;99.90
12111;DHT22;6119;52.372;8.990;2023-08-31T03:00:34;13.70;99.90
12111;DHT22;6119;52.372;8.990;2023-08-31T03:03:21;13.50;99.90
12111;DHT22;6119;52.372;8.990;2023-08-31T03:06:09;13.60;99.90
12111;DHT22;6119;52.372;8.990;2023-08-31T03:08:56;13.60;99.90
12111;DHT22;6119;52.372;8.990;2023-08-31T03:11:42;13.50;99.90
12111;DHT22;6119;52.372;8.990;2023-08-31T03:14:29;13.60;99.90
12111;DHT22;6119;52.372;8.990;2023-08-31T03:17:15;13.50;99.90
12111;DHT22;6119;52.372;8.990;2023-08-31T03:20:02;13.50;99.90
12111;DHT22;6119;52.372;8.990;2023-08-31T03:22:52;13.40;99.90
12111;DHT22;6119;52.372;8.990;2023-08-31T03:25:39;13.30;99.90
12111;DHT22;6119;52.372;8.990;2023-08-31T03:28:26;13.40;99.90
12111;DHT22;6119;52.372;8.990;2023-08-31T03:31:12;13.30;99.90
12111;DHT22;6119;52.372;8.990;2023-08-31T03:33:59;13.30;99.90
12111;DHT22;6119;52.372;8.990;2023-08-31T03:36:46;13.40;99.90
12111;DHT22;6119;52.372;8.990;2023-08-31T03:39:33;13.40;99.90
12111;DHT22;6119;52.372;8.990;2023-08-31T03:42:20;13.40;99.90
12111;DHT22;6119;52.372;8.990;2023-08-31T03:45:07;13.40;99.90
12111;DHT22;6119;52.372;8.990;2023-08-31T03:47:54;13.40;99.90
12111;DHT22;6119;52.372;8.990;2023-08-31T03:50:40;13.40;99.90
12111;DHT22;6119;52.372;8.990;2023-08-31T03:53:27;13.40;99.90
12111;DHT22;6119;52.372;8.990;2023-08-31T03:56:15;13.30;99.90
12111;DHT22;6119;52.372;8.990;2023-08-31T03:59:02;13.30;99.90
12111;DHT22;6119;52.372;8.990;2023-08-31T04:01:50;13.30;99.90
12111;DHT22;6119;52.372;8.990;2023-08-31T04:04:36;13.30;99.90
12111;DHT22;6119;52.372;8.990;2023-08-31T04:07:23;13.30;99.90
12111;DHT22;6119;52.372;8.990;2023-08-31T04:10:10;13.30;99.90
12111;DHT22;6119;52.372;8.990;2023-08-31T04:12:58;13.30;99.90
12111;DHT22;6119;52.372;8.990;2023-08-31T04:15:44;13.30;99.90
12111;DHT22;6119;52.372;8.990;2023-08-31T04:18:31;13.20;99.90
12111;DHT22;6119;52.372;8.990;2023-08-31T04:21:18;13.20;99.90
12111;DHT22;6119;52.372;8.990;2023-08-31T04:24:05;13.20;99.90
12111;DHT22;6119;52.372;8.990;2023-08-31T04:26:52;13.30;99.90
12111;DHT22;6119;52.372;8.990;2023-08-31T04:29:40;13.20;99.90
12111;DHT22;6119;52.372;8.990;2023-08-31T04:32:27;13.10;99.90
12111;DHT22;6119;52.372;8.990;2023-08-31T04:35:14;13.20;99.90
12111;DHT22;6119;52.372;8.990;2023-08-31T04:38:00;13.10;99.90
12111;DHT22;6119;52.372;8.990;2023-08-31T04:40:48;13.20;99.90
12111;DHT22;6119;52.372;8.990;2023-08-31T04:43:35;13.20;99.90
12111;DHT22;6119;52.372;8.990;2023-08-31T04:46:23;13.30;99.90
12111;DHT22;6119;52.372;8.990;2023-08-31T04:49:09;13.30;99.90
12111;DHT22;6119;52.372;8.990;2023-08-31T04:51:56;13.30;99.90
12111;DHT22;6119;52.372;8.990;2023-08-31T04:54:43;13.30;99.90
12111;DHT22;6119;52.372;8.990;2023-08-31T04:57:29;13.20;99.90
12111;DHT22;6119;52.372;8.990;2023-08-31T05:00:17;13.30;99.90
12111;DHT22;6119;52.372;8.990;2023-08-31T05:03:05;13.20;99.90
12111;DHT22;6119;52.372;8.990;2023-08-31T05:05:52;13.20;99.90
12111;DHT22;6119;52.372;8.990;2023-08-31T05:08:38;13.30;99.90
12111;DHT22;6119;52.372;8.990;2023-08-31T05:11:25;13.30;99.90
12111;DHT22;6119;52.372;8.990;2023-08-31T05:14:12;13.30;99.90
12111;DHT22;6119;52.372;8.990;2023-08-31T05:16:58;13.30;99.90
12111;DHT22;6119;52.372;8.990;2023-08-31T05:19:46;13.30;99.90
12111;DHT22;6119;52.372;8.990;2023-08-31T05:22:33;13.30;99.90
12111;DHT22;6119;52.372;8.990;2023-08-31T05:25:20;13.40;99.90
12111;DHT22;6119;52.372;8.990;2023-08-31T05:28:07;13.50;99.90
12111;DHT22;6119;52.372;8.990;2023-08-31T05:30:56;13.50;99.90
12111;DHT22;6119;52.372;8.990;2023-08-31T05:33:43;13.40;99.90
12111;DHT22;6119;52.372;8.990;2023-08-31T05:36:31;13.40;99.90
12111;DHT22;6119;52.372;8.990;2023-08-31T05:39:18;13.40;99.90
12111;DHT22;6119;52.372;8.990;2023-08-31T05:42:05;13.40;99.90
12111;DHT22;6119;52.372;8.990;2023-08-31T05:44:52;13.50;99.90
12111;DHT22;6119;52.372;8.990;2023-08-31T05:47:40;13.60;99.90
12111;DHT22;6119;52.372;8.990;2023-08-31T05:50:27;13.50;99.90
12111;DHT22;6119;52.372;8.990;2023-08-31T05:53:15;13.60;99.90
12111;DHT22;6119;52.372;8.990;2023-08-31T05:56:03;13.50;99.90
12111;DHT22;6119;52.372;8.990;2023-08-31T05:58:50;13.60;99.90
12111;DHT22;6119;52.372;8.990;2023-08-31T06:01:40;13.60;99.90
12111;DHT22;6119;52.372;8.990;2023-08-31T06:04:27;13.70;99.90
12111;DHT22;6119;52.372;8.990;2023-08-31T06:07:13;13.70;99.90
12111;DHT22;6119;52.372;8.990;2023-08-31T06:10:01;13.70;99.90
12111;DHT22;6119;52.372;8.990;2023-08-31T06:12:49;13.70;99.90
12111;DHT22;6119;52.372;8.990;2023-08-31T06:15:38;13.60;99.90
12111;DHT22;6119;52.372;8.990;2023-08-31T06:18:25;13.70;99.90
12111;DHT22;6119;52.372;8.990;2023-08-31T06:21:12;13.60;99.90
12111;DHT22;6119;52.372;8.990;2023-08-31T06:23:58;13.60;99.90
12111;DHT22;6119;52.372;8.990;2023-08-31T06:26:46;13.60;99.90
12111;DHT22;6119;52.372;8.990;2023-08-31T06:29:33;13.60;99.90
12111;DHT22;6119;52.372;8.990;2023-08-31T06:32:19;13.70;99.90
12111;DHT22;6119;52.372;8.990;2023-08-31T06:35:06;13.70;99.90
12111;DHT22;6119;52.372;8.990;2023-08-31T06:37:53;13.80;99.90
12111;DHT22;6119;52.372;8.990;2023-08-31T06:40:42;13.80;99.90
12111;DHT22;6119;52.372;8.990;2023-08-31T06:43:31;13.90;99.90
12111;DHT22;6119;52.372;8.990;2023-08-31T06:46:17;13.90;99.90
12111;DHT22;6119;52.372;8.990;2023-08-31T06:49:09;14.00;99.90
12111;DHT22;6119;52.372;8.990;2023-08-31T06:51:56;14.10;99.90
12111;DHT22;6119;52.372;8.990;2023-08-31T06:54:43;14.20;99.90
12111;DHT22;6119;52.372;8.990;2023-08-31T06:57:29;14.10;99.90
12111;DHT22;6119;52.372;8.990;2023-08-31T07:00:18;14.20;99.90
12111;DHT22;6119;52.372;8.990;2023-08-31T07:03:05;14.10;99.90
12111;DHT22;6119;52.372;8.990;2023-08-31T07:05:52;14.20;99.90
12111;DHT22;6119;52.372;8.990;2023-08-31T07:08:39;14.20;99.90
12111;DHT22;6119;52.372;8.990;2023-08-31T07:11:27;14.20;99.90
12111;DHT22;6119;52.372;8.990;2023-08-31T07:14:14;14.30;99.90
12111;DHT22;6119;52.372;8.990;2023-08-31T07:17:02;14.30;99.90
12111;DHT22;6119;52.372;8.990;2023-08-31T07:19:49;14.30;99.90
12111;DHT22;6119;52.372;8.990;2023-08-31T07:22:35;14.30;99.90
12111;DHT22;6119;52.372;8.990;2023-08-31T07:25:22;14.40;99.90
12111;DHT22;6119;52.372;8.990;2023-08-31T07:28:09;14.50;99.90
12111;DHT22;6119;52.372;8.990;2023-08-31T07:31:01;14.50;99.90
12111;DHT22;6119;52.372;8.990;2023-08-31T07:33:50;14.50;99.90
12111;DHT22;6119;52.372;8.990;2023-08-31T07:36:37;14.40;99.90
12111;DHT22;6119;52.372;8.990;2023-08-31T07:39:24;14.50;99.90
12111;DHT22;6119;52.372;8.990;2023-08-31T07:42:12;14.60;99.90
12111;DHT22;6119;52.372;8.990;2023-08-31T07:44:58;14.70;99.90
12111;DHT22;6119;52.372;8.990;2023-08-31T07:47:45;14.70;99.90
12111;DHT22;6119;52.372;8.990;2023-08-31T07:50:33;14.70;99.90
12111;DHT22;6119;52.372;8.990;2023-08-31T07:53:20;14.80;99.90
12111;DHT22;6119;52.372;8.990;2023-08-31T07:56:08;14.90;99.90
12111;DHT22;6119;52.372;8.990;2023-08-31T07:58:54;14.90;99.90
12111;DHT22;6119;52.372;8.990;2023-08-31T08:01:41;14.80;99.90
12111;DHT22;6119;52.372;8.990;2023-08-31T08:04:28;15.00;99.90
12111;DHT22;6119;52.372;8.990;2023-08-31T08:07:16;15.00;99.90
12111;DHT22;6119;52.372;8.990;2023-08-31T08:10:04;15.10;99.90
12111;DHT22;6119;52.372;8.990;2023-08-31T08:12:51;15.00;99.90
12111;DHT22;6119;52.372;8.990;2023-08-31T08:15:37;15.00;99.90
12111;DHT22;6119;52.372;8.990;2023-08-31T08:18:25;15.20;99.90
12111;DHT22;6119;52.372;8.990;2023-08-31T08:21:11;15.10;99.90
12111;DHT22;6119;52.372;8.990;2023-08-31T08:23:59;15.20;99.90
12111;DHT22;6119;52.372;8.990;2023-08-31T08:26:46;15.30;99.90
12111;DHT22;6119;52.372;8.990;2023-08-31T08:29:33;15.40;99.90
12111;DHT22;6119;52.372;8.990;2023-08-31T08:32:19;15.50;99.90
12111;DHT22;6119;52.372;8.990;2023-08-31T08:35:07;15.50;99.90
12111;DHT22;6119;52.372;8.990;2023-08-31T08:37:54;15.50;99.90
12111;DHT22;6119;52.372;8.990;2023-08-31T08:40:42;15.30;99.90
12111;DHT22;6119;52.372;8.990;2023-08-31T08:43:29;15.40;99.90
12111;DHT22;6119;52.372;8.990;2023-08-31T08:46:15;15.70;99.90
12111;DHT22;6119;52.372;8.990;2023-08-31T08:49:03;15.70;99.90
12111;DHT22;6119;52.372;8.990;2023-08-31T08:51:51;15.80;99.90
12111;DHT22;6119;52.372;8.990;2023-08-31T08:54:38;15.70;99.90
12111;DHT22;6119;52.372;8.990;2023-08-31T08:57:26;15.80;99.90
12111;DHT22;6119;52.372;8.990;2023-08-31T09:00:14;15.70;99.90
12111;DHT22;6119;52.372;8.990;2023-08-31T09:03:01;15.80;99.90
12111;DHT22;6119;52.372;8.990;2023-08-31T09:05:49;15.90;99.90
12111;DHT22;6119;52.372;8.990;2023-08-31T09:08:36;15.80;99.90
12111;DHT22;6119;52.372;8.990;2023-08-31T09:11:23;15.80;99.90
12111;DHT22;6119;52.372;8.990;2023-08-31T09:14:16;15.80;99.90
12111;DHT22;6119;52.372;8.990;2023-08-31T09:17:03;16.00;99.90
12111;DHT22;6119;52.372;8.990;2023-08-31T09:19:58;16.20;99.90
12111;DHT22;6119;52.372;8.990;2023-08-31T09:22:46;16.30;99.90
12111;DHT22;6119;52.372;8.990;2023-08-31T09:25:41;16.30;99.90
12111;DHT22;6119;52.372;8.990;2023-08-31T09:28:28;16.20;99.90
12111;DHT22;6119;52.372;8.990;2023-08-31T09:31:17;16.20;99.90
12111;DHT22;6119;52.372;8.990;2023-08-31T09:34:04;16.30;99.90
12111;DHT22;6119;52.372;8.990;2023-08-31T09:36:51;16.20;99.90
12111;DHT22;6119;52.372;8.990;2023-08-31T09:39:39;16.20;99.90
12111;DHT22;6119;52.372;8.990;2023-08-31T09:42:36;16.00;99.90
12111;DHT22;6119;52.372;8.990;2023-08-31T09:45:26;16.10;99.90
12111;DHT22;6119;52.372;8.990;2023-08-31T09:48:31;16.10;99.90
12111;DHT22;6119;52.372;8.990;2023-08-31T09:51:20;16.20;99.90
12111;DHT22;6119;52.372;8.990;2023-08-31T09:54:13;16.10;99.90
12111;DHT22;6119;52.372;8.990;2023-08-31T09:57:01;16.30;99.90
12111;DHT22;6119;52.372;8.990;2023-08-31T09:59:49;16.30;99.90
12111;DHT22;6119;52.372;8.990;2023-08-31T10:02:36;16.50;99.90
12111;DHT22;6119;52.372;8.990;2023-08-31T10:05:24;16.80;99.90
12111;DHT22;6119;52.372;8.990;2023-08-31T10:08:14;16.70;99.90
12111;DHT22;6119;52.372;8.990;2023-08-31T10:11:01;16.50;99.90
12111;DHT22;6119;52.372;8.990;2023-08-31T10:13:50;16.70;99.90
12111;DHT22;6119;52.372;8.990;2023-08-31T10:16:39;16.50;99.90
12111;DHT22;6119;52.372;8.990;2023-08-31T10:19:27;16.50;99.90
12111;DHT22;6119;52.372;8.990;2023-08-31T10:22:15;16.40;99.90
12111;DHT22;6119;52.372;8.990;2023-08-31T10:25:02;16.30;99.90
12111;DHT22;6119;52.372;8.990;2023-08-31T10:27:51;16.40;99.90
12111;DHT22;6119;52.372;8.990;2023-08-31T10:30:38;16.50;99.90
12111;DHT22;6119;52.372;8.990;2023-08-31T10:33:26;16.50;99.90
12111;DHT22;6119;52.372;8.990;2023-08-31T10:36:14;16.70;99.90
12111;DHT22;6119;52.372;8.990;2023-08-31T10:39:07;16.60;99.90
12111;DHT22;6119;52.372;8.990;2023-08-31T10:41:57;16.80;99.90
12111;DHT22;6119;52.372;8.990;2023-08-31T10:44:49;17.00;99.90
12111;DHT22;6119;52.372;8.990;2023-08-31T10:47:40;17.10;99.90
12111;DHT22;6119;52.372;8.990;2023-08-31T10:50:41;17.50;99.90
12111;DHT22;6119;52.372;8.990;2023-08-31T10:53:28;17.40;99.90
12111;DHT22;6119;52.372;8.990;2023-08-31T10:56:17;17.60;99.90
12111;DHT22;6119;52.372;8.990;2023-08-31T10:59:04;17.50;99.90
12111;DHT22;6119;52.372;8.990;2023-08-31T11:01:58;17.70;99.90
12111;DHT22;6119;52.372;8.990;2023-08-31T11:04:55;17.90;99.90
12111;DHT22;6119;52.372;8.990;2023-08-31T11:07:43;17.60;99.90
12111;DHT22;6119;52.372;8.990;2023-08-31T11:10:30;17.50;99.90
12111;DHT22;6119;52.372;8.990;2023-08-31T11:13:19;17.60;99.90
12111;DHT22;6119;52.372;8.990;2023-08-31T11:16:06;18.10;99.90
12111;DHT22;6119;52.372;8.990;2023-08-31T11:18:53;18.30;99.90
12111;DHT22;6119;52.372;8.990;2023-08-31T11:21:40;18.60;99.90
12111;DHT22;6119;52.372;8.990;2023-08-31T11:24:27;18.70;99.90
12111;DHT22;6119;52.372;8.990;2023-08-31T11:27:14;18.40;99.90
12111;DHT22;6119;52.372;8.990;2023-08-31T11:30:02;18.60;99.90
12111;DHT22;6119;52.372;8.990;2023-08-31T11:32:51;18.70;99.90
12111;DHT22;6119;52.372;8.990;2023-08-31T11:35:40;18.70;99.90
12111;DHT22;6119;52.372;8.990;2023-08-31T11:38:28;18.80;99.90
12111;DHT22;6119;52.372;8.990;2023-08-31T11:41:16;19.10;99.90
12111;DHT22;6119;52.372;8.990;2023-08-31T11:44:04;19.10;99.90
12111;DHT22;6119;52.372;8.990;2023-08-31T11:46:53;18.60;99.90
12111;DHT22;6119;52.372;8.990;2023-08-31T11:49:40;18.50;99.90
12111;DHT22;6119;52.372;8.990;2023-08-31T11:52:27;18.40;99.90
12111;DHT22;6119;52.372;8.990;2023-08-31T11:55:15;18.70;99.90
12111;DHT22;6119;52.372;8.990;2023-08-31T11:58:03;18.50;99.90
12111;DHT22;6119;52.372;8.990;2023-08-31T12:00:57;18.20;99.90
12111;DHT22;6119;52.372;8.990;2023-08-31T12:03:46;18.20;99.90
12111;DHT22;6119;52.372;8.990;2023-08-31T12:06:35;18.20;99.90
12111;DHT22;6119;52.372;8.990;2023-08-31T12:09:22;18.70;99.90
12111;DHT22;6119;52.372;8.990;2023-08-31T12:12:09;18.80;99.90
12111;DHT22;6119;52.372;8.990;2023-08-31T12:14:59;18.80;99.90
12111;DHT22;6119;52.372;8.990;2023-08-31T12:17:49;18.80;99.90
12111;DHT22;6119;52.372;8.990;2023-08-31T12:20:45;18.80;99.90
12111;DHT22;6119;52.372;8.990;2023-08-31T12:23:32;18.70;99.90
12111;DHT22;6119;52.372;8.990;2023-08-31T12:26:19;18.90;99.90
12111;DHT22;6119;52.372;8.990;2023-08-31T12:29:05;18.80;99.90
12111;DHT22;6119;52.372;8.990;2023-08-31T12:31:52;18.80;99.90
12111;DHT22;6119;52.372;8.990;2023-08-31T12:34:39;18.60;99.90
12111;DHT22;6119;52.372;8.990;2023-08-31T12:37:27;18.60;99.90
12111;DHT22;6119;52.372;8.990;2023-08-31T12:40:14;18.50;99.90
12111;DHT22;6119;52.372;8.990;2023-08-31T12:43:01;18.50;99.90
12111;DHT22;6119;52.372;8.990;2023-08-31T12:45:47;18.40;99.90
12111;DHT22;6119;52.372;8.990;2023-08-31T12:48:34;18.30;99.90
12111;DHT22;6119;52.372;8.990;2023-08-31T12:51:21;18.10;99.90
12111;DHT22;6119;52.372;8.990;2023-08-31T12:54:09;17.90;99.90
12111;DHT22;6119;52.372;8.990;2023-08-31T12:56:56;17.60;99.90
12111;DHT22;6119;52.372;8.990;2023-08-31T12:59:43;17.10;99.90
12111;DHT22;6119;52.372;8.990;2023-08-31T13:02:31;16.50;99.90
12111;DHT22;6119;52.372;8.990;2023-08-31T13:05:18;16.50;99.90
12111;DHT22;6119;52.372;8.990;2023-08-31T13:08:05;16.10;99.90
12111;DHT22;6119;52.372;8.990;2023-08-31T13:10:54;16.00;99.90
12111;DHT22;6119;52.372;8.990;2023-08-31T13:13:41;15.70;99.90
12111;DHT22;6119;52.372;8.990;2023-08-31T13:16:28;15.70;99.90
12111;DHT22;6119;52.372;8.990;2023-08-31T13:19:15;15.50;99.90
12111;DHT22;6119;52.372;8.990;2023-08-31T13:22:02;15.60;99.90
12111;DHT22;6119;52.372;8.990;2023-08-31T13:24:49;15.80;99.90
12111;DHT22;6119;52.372;8.990;2023-08-31T13:27:37;16.00;99.90
12111;DHT22;6119;52.372;8.990;2023-08-31T13:30:24;16.10;99.90
12111;DHT22;6119;52.372;8.990;2023-08-31T13:33:11;16.00;99.90
12111;DHT22;6119;52.372;8.990;2023-08-31T13:35:58;16.20;99.90
12111;DHT22;6119;52.372;8.990;2023-08-31T13:38:44;16.20;99.90
12111;DHT22;6119;52.372;8.990;2023-08-31T13:41:31;16.10;99.90
12111;DHT22;6119;52.372;8.990;2023-08-31T13:44:20;16.30;99.90
12111;DHT22;6119;52.372;8.990;2023-08-31T13:47:06;16.40;99.90
12111;DHT22;6119;52.372;8.990;2023-08-31T13:49:53;16.40;99.90
12111;DHT22;6119;52.372;8.990;2023-08-31T13:52:40;16.40;99.90
12111;DHT22;6119;52.372;8.990;2023-08-31T13:55:26;16.40;99.90
12111;DHT22;6119;52.372;8.990;2023-08-31T13:58:13;16.40;99.90
12111;DHT22;6119;52.372;8.990;2023-08-31T14:01:02;16.30;99.90
12111;DHT22;6119;52.372;8.990;2023-08-31T14:03:49;16.40;99.90
12111;DHT22;6119;52.372;8.990;2023-08-31T14:06:35;16.60;99.90
12111;DHT22;6119;52.372;8.990;2023-08-31T14:09:22;16.70;99.90
12111;DHT22;6119;52.372;8.990;2023-08-31T14:12:09;16.80;99.90
12111;DHT22;6119;52.372;8.990;2023-08-31T14:14:56;16.90;99.90
12111;DHT22;6119;52.372;8.990;2023-08-31T14:17:44;16.90;99.90
12111;DHT22;6119;52.372;8.990;2023-08-31T14:20:31;16.80;99.90
12111;DHT22;6119;52.372;8.990;2023-08-31T14:23:18;16.90;99.90
12111;DHT22;6119;52.372;8.990;2023-08-31T14:26:04;17.20;99.90
12111;DHT22;6119;52.372;8.990;2023-08-31T14:28:52;17.60;99.90
12111;DHT22;6119;52.372;8.990;2023-08-31T14:31:39;17.80;99.90
12111;DHT22;6119;52.372;8.990;2023-08-31T14:34:30;17.90;99.90
12111;DHT22;6119;52.372;8.990;2023-08-31T14:37:17;17.80;99.90
12111;DHT22;6119;52.372;8.990;2023-08-31T14:40:04;17.60;99.90
12111;DHT22;6119;52.372;8.990;2023-08-31T14:42:52;17.60;99.90
12111;DHT22;6119;52.372;8.990;2023-08-31T14:45:42;17.60;99.90
12111;DHT22;6119;52.372;8.990;2023-08-31T14:48:29;17.80;99.90
12111;DHT22;6119;52.372;8.990;2023-08-31T14:51:17;18.30;99.90
12111;DHT22;6119;52.372;8.990;2023-08-31T14:54:04;18.20;99.90
12111;DHT22;6119;52.372;8.990;2023-08-31T14:56:52;18.10;99.90
12111;DHT22;6119;52.372;8.990;2023-08-31T14:59:38;18.00;99.90
12111;DHT22;6119;52.372;8.990;2023-08-31T15:02:27;18.00;99.90
12111;DHT22;6119;52.372;8.990;2023-08-31T15:05:14;18.00;99.90
12111;DHT22;6119;52.372;8.990;2023-08-31T15:08:04;17.80;99.90
12111;DHT22;6119;52.372;8.990;2023-08-31T15:10:50;17.80;99.90
12111;DHT22;6119;52.372;8.990;2023-08-31T15:13:38;17.90;99.90
12111;DHT22;6119;52.372;8.990;2023-08-31T15:16:25;17.80;99.90
12111;DHT22;6119;52.372;8.990;2023-08-31T15:19:13;17.80;99.90
12111;DHT22;6119;52.372;8.990;2023-08-31T15:22:00;17.90;99.90
12111;DHT22;6119;52.372;8.990;2023-08-31T15:24:52;17.80;99.90
12111;DHT22;6119;52.372;8.990;2023-08-31T15:27:39;17.90;99.90
12111;DHT22;6119;52.372;8.990;2023-08-31T15:30:26;17.80;99.90
12111;DHT22;6119;52.372;8.990;2023-08-31T15:33:12;17.90;99.90
12111;DHT22;6119;52.372;8.990;2023-08-31T15:36:04;17.90;99.90
12111;DHT22;6119;52.372;8.990;2023-08-31T15:38:51;17.90;99.90
12111;DHT22;6119;52.372;8.990;2023-08-31T15:41:39;18.10;99.90
12111;DHT22;6119;52.372;8.990;2023-08-31T15:44:26;18.00;99.90
12111;DHT22;6119;52.372;8.990;2023-08-31T15:47:12;18.00;99.90
12111;DHT22;6119;52.372;8.990;2023-08-31T15:49:59;18.10;99.90
12111;DHT22;6119;52.372;8.990;2023-08-31T15:52:46;18.00;99.90
12111;DHT22;6119;52.372;8.990;2023-08-31T15:55:35;18.00;99.90
12111;DHT22;6119;52.372;8.990;2023-08-31T15:58:24;18.00;99.90
12111;DHT22;6119;52.372;8.990;2023-08-31T16:01:12;18.00;99.90
12111;DHT22;6119;52.372;8.990;2023-08-31T16:03:58;18.00;99.90
12111;DHT22;6119;52.372;8.990;2023-08-31T16:06:45;17.90;99.90
12111;DHT22;6119;52.372;8.990;2023-08-31T16:09:32;17.90;99.90
12111;DHT22;6119;52.372;8.990;2023-08-31T16:12:19;17.80;99.90
12111;DHT22;6119;52.372;8.990;2023-08-31T16:15:08;17.70;99.90
12111;DHT22;6119;52.372;8.990;2023-08-31T16:17:55;18.00;99.90
12111;DHT22;6119;52.372;8.990;2023-08-31T16:20:42;18.20;99.90
12111;DHT22;6119;52.372;8.990;2023-08-31T16:23:30;18.60;99.90
12111;DHT22;6119;52.372;8.990;2023-08-31T16:26:16;18.50;99.90
12111;DHT22;6119;52.372;8.990;2023-08-31T16:29:04;18.80;99.90
12111;DHT22;6119;52.372;8.990;2023-08-31T16:31:52;18.80;99.90
12111;DHT22;6119;52.372;8.990;2023-08-31T16:34:39;19.00;99.90
12111;DHT22;6119;52.372;8.990;2023-08-31T16:37:25;19.20;99.90
12111;DHT22;6119;52.372;8.990;2023-08-31T16:40:13;19.20;99.90
12111;DHT22;6119;52.372;8.990;2023-08-31T16:42:59;19.20;99.90
12111;DHT22;6119;52.372;8.990;2023-08-31T16:45:46;19.20;99.90
12111;DHT22;6119;52.372;8.990;2023-08-31T16:48:34;19.40;99.90
12111;DHT22;6119;52.372;8.990;2023-08-31T16:51:21;19.10;99.90
12111;DHT22;6119;52.372;8.990;2023-08-31T16:54:08;19.20;99.90
12111;DHT22;6119;52.372;8.990;2023-08-31T16:56:54;19.40;99.90
12111;DHT22;6119;52.372;8.990;2023-08-31T16:59:41;19.50;99.90
12111;DHT22;6119;52.372;8.990;2023-08-31T17:02:28;19.80;99.90
12111;DHT22;6119;52.372;8.990;2023-08-31T17:05:18;19.80;99.90
12111;DHT22;6119;52.372;8.990;2023-08-31T17:08:06;19.70;99.90
12111;DHT22;6119;52.372;8.990;2023-08-31T17:10:53;19.40;99.90
12111;DHT22;6119;52.372;8.990;2023-08-31T17:13:39;19.60;99.90
12111;DHT22;6119;52.372;8.990;2023-08-31T17:16:27;19.60;99.90
12111;DHT22;6119;52.372;8.990;2023-08-31T17:22:04;20.00;99.90
12111;DHT22;6119;52.372;8.990;2023-08-31T17:24:51;19.80;99.90
12111;DHT22;6119;52.372;8.990;2023-08-31T17:27:38;19.90;99.90
12111;DHT22;6119;52.372;8.990;2023-08-31T17:30:25;20.10;99.90
12111;DHT22;6119;52.372;8.990;2023-08-31T17:33:12;20.10;99.90
12111;DHT22;6119;52.372;8.990;2023-08-31T17:35:59;19.50;99.90
12111;DHT22;6119;52.372;8.990;2023-08-31T17:38:47;19.20;99.90
12111;DHT22;6119;52.372;8.990;2023-08-31T17:41:33;19.00;99.90
12111;DHT22;6119;52.372;8.990;2023-08-31T17:44:20;18.70;99.90
12111;DHT22;6119;52.372;8.990;2023-08-31T17:47:10;18.50;99.90
12111;DHT22;6119;52.372;8.990;2023-08-31T17:49:56;18.40;99.90
12111;DHT22;6119;52.372;8.990;2023-08-31T17:52:43;18.20;99.90
12111;DHT22;6119;52.372;8.990;2023-08-31T17:55:31;18.20;99.90
12111;DHT22;6119;52.372;8.990;2023-08-31T17:58:18;18.10;99.90